Time;durP1;ratioP1;P1;durP2;ratioP2;P2;SDS_P1;SDS_P2;PMS_P1;PMS_P2;Temp;Humidity;BMP_temperature;BMP_pressure;BME280_temperature;BME280_humidity;BME280_pressure;Samples;Min_cycle;Max_cycle;Signal;HPM_P1;HPM_P2
2023/07/24 00:02:15;;;;;;;5.05;4.65;;;;;;;29.28;55.76;101505.13;5049930;28;20498;-83
2023/07/24 00:04:41;;;;;;;5.55;5.00;;;;;;;29.23;55.46;101495.31;5032734;28;20021;-83
2023/07/24 00:07:06;;;;;;;5.60;4.65;;;;;;;29.20;55.64;101491.75;5051465;28;20017;-82
2023/07/24 00:09:32;;;;;;;5.65;4.93;;;;;;;29.29;55.45;101506.91;5050858;28;20028;-83
2023/07/24 00:11:58;;;;;;;5.35;4.65;;;;;;;29.26;55.54;101499.78;5051015;28;20600;-83
2023/07/24 00:14:23;;;;;;;5.32;4.82;;;;;;;29.18;55.58;101488.19;5017107;28;20017;-83
2023/07/24 00:16:49;;;;;;;5.78;4.93;;;;;;;29.23;55.43;101499.78;5049958;28;20527;-83
2023/07/24 00:19:15;;;;;;;5.32;4.82;;;;;;;29.21;55.51;101493.53;5049084;28;20037;-82
2023/07/24 00:21:41;;;;;;;5.40;4.90;;;;;;;29.08;55.50;101479.31;5050921;28;20186;-83
2023/07/24 00:24:06;;;;;;;6.15;5.28;;;;;;;29.20;55.70;101497.16;5045275;28;20025;-83
2023/07/24 00:26:32;;;;;;;5.47;4.97;;;;;;;29.17;55.58;101489.13;5004624;28;20486;-83
2023/07/24 00:28:59;;;;;;;5.18;4.68;;;;;;;29.18;55.54;101486.41;5031062;28;20119;-83
2023/07/24 00:31:25;;;;;;;5.80;5.15;;;;;;;29.02;55.42;101469.53;5032476;28;20170;-84
2023/07/24 00:33:50;;;;;;;5.80;4.75;;;;;;;29.17;55.63;101484.63;5016485;28;20468;-83
2023/07/24 00:36:16;;;;;;;5.40;4.90;;;;;;;29.17;55.48;101483.75;5027249;28;20540;-82
2023/07/24 00:38:42;;;;;;;5.28;4.80;;;;;;;29.06;55.79;101464.09;5046032;28;20115;-82
2023/07/24 00:41:07;;;;;;;5.40;4.70;;;;;;;29.16;55.58;101481.94;5050314;28;20147;-83
2023/07/24 00:43:33;;;;;;;4.97;4.57;;;;;;;29.15;55.57;101489.13;5032743;28;20029;-83
2023/07/24 00:45:58;;;;;;;5.30;4.80;;;;;;;29.02;55.45;101461.47;5032637;28;20124;-82
2023/07/24 00:48:24;;;;;;;5.47;4.97;;;;;;;29.11;55.47;101473.94;5016271;28;20029;-83
2023/07/24 00:50:50;;;;;;;6.32;4.72;;;;;;;29.15;55.52;101482.88;5036356;28;20029;-82
2023/07/24 00:53:17;;;;;;;5.00;4.60;;;;;;;29.08;55.39;101468.53;5036380;28;20055;-83
2023/07/24 00:55:43;;;;;;;5.07;4.57;;;;;;;29.00;55.34;101452.53;5035378;28;20028;-82
2023/07/24 00:58:11;;;;;;;6.72;5.03;;;;;;;29.12;55.62;101467.63;5054203;28;20548;-83
2023/07/24 01:00:38;;;;;;;6.10;5.00;;;;;;;29.06;55.26;101459.59;5036552;28;20025;-83
2023/07/24 01:03:04;;;;;;;5.55;4.95;;;;;;;28.99;55.59;101461.47;5036288;28;20083;-82
2023/07/24 01:05:30;;;;;;;5.15;4.65;;;;;;;29.09;55.43;101478.41;5054003;28;20028;-83
2023/07/24 01:07:56;;;;;;;5.55;4.93;;;;;;;28.94;55.41;101457.06;5019170;28;20493;-83
2023/07/24 01:10:21;;;;;;;4.95;4.45;;;;;;;28.93;55.45;101458.84;5019349;28;20036;-83
2023/07/24 01:13:07;;;;;;;5.90;4.60;;;;;;;29.05;55.43;101486.53;5033647;28;20448;-83
2023/07/24 01:15:36;;;;;;;5.03;4.57;;;;;;;28.89;55.50;101461.59;5019313;28;20127;-83
2023/07/24 01:18:10;;;;;;;5.20;4.70;;;;;;;29.06;55.47;101491.00;5033854;28;20029;-83
2023/07/24 01:20:37;;;;;;;5.03;4.50;;;;;;;28.99;55.50;101480.31;5033711;28;20024;-83
2023/07/24 01:23:37;;;;;;;5.20;4.70;;;;;;;29.04;55.46;101493.69;5051812;28;20029;-83
2023/07/24 01:26:03;;;;;;;5.43;4.93;;;;;;;29.03;55.41;101486.53;5034033;28;20036;-83
2023/07/24 01:28:29;;;;;;;5.32;4.82;;;;;;;29.02;55.60;101495.53;5032372;28;20025;-82
2023/07/24 01:30:56;;;;;;;5.47;4.97;;;;;;;29.03;55.43;101500.88;5034248;28;20032;-83
2023/07/24 01:33:22;;;;;;;4.90;4.50;;;;;;;29.00;55.41;101503.63;5035553;28;20029;-82
2023/07/24 01:35:57;;;;;;;6.07;4.90;;;;;;;28.85;55.53;101476.91;5052842;28;20021;-83
2023/07/24 01:38:26;;;;;;;5.20;4.50;;;;;;;28.86;55.33;101472.41;5018519;28;20601;-83
2023/07/24 01:40:53;;;;;;;5.30;4.80;;;;;;;28.97;55.26;101500.06;5053168;28;20084;-83
2023/07/24 01:43:19;;;;;;;5.53;4.85;;;;;;;28.94;55.63;101503.69;5034176;28;20029;-83
2023/07/24 01:45:45;;;;;;;6.43;4.50;;;;;;;28.89;55.56;101500.13;5053141;28;20047;-83
2023/07/24 01:48:10;;;;;;;5.10;4.60;;;;;;;28.67;55.59;101459.16;5053073;28;20052;-83
2023/07/24 01:50:36;;;;;;;4.93;4.43;;;;;;;28.92;55.47;101493.84;5052975;28;20070;-83
2023/07/24 01:53:02;;;;;;;5.15;4.65;;;;;;;28.88;55.24;101484.03;5035431;28;20090;-83
2023/07/24 01:55:28;;;;;;;5.63;5.00;;;;;;;28.92;55.27;101494.72;5035369;28;20023;-83
2023/07/24 01:57:53;;;;;;;5.63;5.13;;;;;;;28.85;55.38;101473.28;5034807;28;20085;-83
2023/07/24 02:00:19;;;;;;;5.50;4.80;;;;;;;28.75;55.42;101468.03;5049448;28;20040;-82
2023/07/24 02:02:44;;;;;;;5.22;4.72;;;;;;;28.85;55.44;101475.97;5051456;28;20557;-83
2023/07/24 02:05:10;;;;;;;5.60;5.03;;;;;;;28.89;55.50;101493.88;5052946;28;20480;-82
2023/07/24 02:07:36;;;;;;;5.00;4.50;;;;;;;28.86;55.46;101500.16;5052658;28;20376;-82
2023/07/24 02:10:01;;;;;;;6.43;4.90;;;;;;;28.82;55.86;101493.03;5052960;28;20490;-83
2023/07/24 02:12:27;;;;;;;5.68;5.18;;;;;;;28.87;55.52;101493.91;5052390;28;20020;-82
2023/07/24 02:14:54;;;;;;;5.60;5.00;;;;;;;28.78;55.58;101484.09;5051300;28;20036;-83
2023/07/24 02:17:20;;;;;;;5.95;4.95;;;;;;;28.87;55.60;101498.38;5052218;28;20474;-83
2023/07/24 02:19:46;;;;;;;4.82;4.43;;;;;;;28.62;55.63;101453.81;5052675;28;20028;-83
2023/07/24 02:22:12;;;;;;;6.30;5.40;;;;;;;28.71;55.51;101471.66;5034948;28;20025;-83
2023/07/24 02:24:37;;;;;;;5.05;4.60;;;;;;;28.56;55.16;101448.50;5052391;28;20036;-82
2023/07/24 02:27:05;;;;;;;5.45;4.95;;;;;;;28.80;55.50;101487.66;5052407;28;20086;-83
2023/07/24 02:29:31;;;;;;;6.38;5.22;;;;;;;28.70;55.35;101471.66;5051995;28;20020;-83
2023/07/24 02:31:57;;;;;;;5.13;4.55;;;;;;;28.74;55.71;101490.41;5052373;28;20063;-83
2023/07/24 02:34:25;;;;;;;5.20;4.65;;;;;;;28.76;55.63;101499.34;5033031;28;20028;-82
2023/07/24 02:36:53;;;;;;;5.07;4.25;;;;;;;28.76;55.38;101502.03;5034521;28;20025;-83
2023/07/24 02:39:19;;;;;;;4.97;4.47;;;;;;;28.55;55.24;101468.19;5051912;28;20048;-83
2023/07/24 02:41:45;;;;;;;5.22;4.72;;;;;;;28.76;55.46;101499.34;5050724;28;20035;-83
2023/07/24 02:44:12;;;;;;;5.18;4.68;;;;;;;28.67;55.56;101487.81;5034385;28;20593;-83
2023/07/24 02:46:37;;;;;;;5.10;4.57;;;;;;;28.75;55.37;101502.97;5018304;28;20414;-83
2023/07/24 02:49:03;;;;;;;4.90;4.40;;;;;;;28.76;55.41;101504.72;5051953;28;20029;-83
2023/07/24 02:51:29;;;;;;;5.10;4.60;;;;;;;28.73;55.25;101503.91;5020660;28;20033;-84
2023/07/24 02:53:55;;;;;;;5.07;4.60;;;;;;;28.71;55.48;101505.72;5052152;28;20025;-83
2023/07/24 02:56:20;;;;;;;4.53;4.13;;;;;;;28.72;55.33;101500.28;5051729;28;20025;-83
2023/07/24 02:58:46;;;;;;;5.07;4.50;;;;;;;28.70;55.57;101504.81;5050974;28;20128;-83
2023/07/24 03:01:14;;;;;;;5.75;4.60;;;;;;;28.70;55.22;101496.75;5051535;28;20495;-83
2023/07/24 03:03:40;;;;;;;5.38;4.88;;;;;;;28.53;55.25;101463.75;5051723;28;20033;-84
2023/07/24 03:06:06;;;;;;;4.80;4.38;;;;;;;28.60;55.43;101481.63;5031604;28;20112;-83
2023/07/24 03:08:32;;;;;;;5.30;4.80;;;;;;;28.67;55.47;101487.81;5033766;28;20083;-83
2023/07/24 03:10:58;;;;;;;4.78;4.38;;;;;;;28.52;55.22;101465.56;5051326;28;20128;-83
2023/07/24 03:13:23;;;;;;;5.68;4.75;;;;;;;28.62;55.46;101488.75;5051110;28;20033;-83
2023/07/24 03:15:56;;;;;;;5.30;4.45;;;;;;;28.64;55.42;101486.06;5033635;28;20032;-83
2023/07/24 03:18:22;;;;;;;4.90;4.50;;;;;;;28.52;55.31;101465.56;5051576;28;20024;-83
2023/07/24 03:20:47;;;;;;;4.90;4.40;;;;;;;28.60;55.37;101487.88;5032307;28;20102;-83
2023/07/24 03:23:13;;;;;;;4.85;4.28;;;;;;;28.58;55.40;101487.00;5051481;28;20036;-83
2023/07/24 03:25:39;;;;;;;4.85;4.35;;;;;;;28.37;55.34;101444.19;5033228;28;20017;-83
2023/07/24 03:28:04;;;;;;;5.45;4.95;;;;;;;28.56;55.44;101480.75;5051387;28;20029;-83
2023/07/24 03:30:30;;;;;;;5.30;4.80;;;;;;;28.37;55.37;101458.50;5051118;28;20075;-84
2023/07/24 03:32:56;;;;;;;5.75;4.65;;;;;;;28.59;55.34;101495.94;5033490;28;20036;-84
2023/07/24 03:35:22;;;;;;;5.07;4.68;;;;;;;28.60;55.39;101492.38;5051058;28;20082;-83
2023/07/24 03:37:47;;;;;;;5.45;4.95;;;;;;;28.57;55.20;101492.38;5049625;28;20049;-83
2023/07/24 03:40:13;;;;;;;5.32;4.82;;;;;;;28.57;55.17;101487.88;5049463;28;20559;-83
2023/07/24 03:42:39;;;;;;;5.30;4.80;;;;;;;28.59;55.35;101498.63;5051024;28;20017;-83
2023/07/24 03:45:06;;;;;;;6.00;4.88;;;;;;;28.56;55.59;101493.31;5050678;28;20036;-83
2023/07/24 03:51:43;;;;;;;5.03;4.63;;;;;;;28.53;55.26;101496.00;5041002;28;20035;-87
2023/07/24 03:54:35;;;;;;;4.88;4.43;;;;;;;28.51;55.36;101504.09;5049484;28;20119;-87
2023/07/24 03:57:56;;;;;;;6.63;4.63;;;;;;;28.53;55.21;101502.28;5041586;28;20104;-87
2023/07/24 04:00:22;;;;;;;5.90;4.82;;;;;;;28.11;55.31;101447.06;5024114;28;20057;-89
2023/07/24 04:02:47;;;;;;;5.32;4.80;;;;;;;28.39;55.42;101488.91;4998891;28;20063;-87
2023/07/24 04:05:13;;;;;;;5.10;4.60;;;;;;;28.50;55.39;101498.72;5014189;28;20060;-87
2023/07/24 04:07:41;;;;;;;4.75;4.35;;;;;;;28.16;55.49;101443.44;5027660;28;20067;-86
2023/07/24 04:10:07;;;;;;;6.03;4.90;;;;;;;28.29;55.48;101467.53;5032554;28;20044;-87
2023/07/24 04:12:33;;;;;;;5.43;4.88;;;;;;;28.15;55.52;101441.69;5015360;28;20036;-85
2023/07/24 04:14:58;;;;;;;5.28;4.88;;;;;;;28.41;55.49;101491.59;5041000;28;20406;-85
2023/07/24 04:17:24;;;;;;;4.70;4.28;;;;;;;28.31;55.52;101479.16;5041132;28;20044;-87
2023/07/24 04:19:50;;;;;;;5.13;4.63;;;;;;;28.10;55.28;101437.25;5029385;28;20077;-87
2023/07/24 04:22:15;;;;;;;5.20;4.70;;;;;;;28.06;55.68;101449.78;5042995;28;20384;-88
2023/07/24 04:24:41;;;;;;;4.93;4.50;;;;;;;28.37;55.30;101493.41;5051201;28;20120;-87
2023/07/24 04:30:28;;;;;;;5.28;4.63;;;;;;;28.44;55.31;101507.69;5038808;28;20617;-87
2023/07/24 04:33:36;;;;;;;4.63;4.22;;;;;;;28.39;55.67;101509.53;5017042;28;20127;-88
2023/07/24 04:36:25;;;;;;;;;;;;;;;28.39;55.59;101510.41;5005508;28;20465;-88
2023/07/24 04:38:52;;;;;;;5.72;4.53;;;;;;;28.39;55.58;101526.53;5049985;28;19998;-92
2023/07/24 04:44:43;;;;;;;5.15;4.68;;;;;;;28.16;55.78;101486.41;5053137;28;20429;-91
2023/07/24 04:47:09;;;;;;;4.88;4.47;;;;;;;27.90;55.43;101440.06;5012147;28;20025;-90
2023/07/24 04:49:35;;;;;;;5.30;4.80;;;;;;;28.22;55.80;101499.81;5018754;28;20123;-90
2023/07/24 04:52:01;;;;;;;4.72;4.32;;;;;;;28.14;55.81;101487.34;5018068;28;20032;-91
2023/07/24 04:54:28;;;;;;;5.85;4.75;;;;;;;28.07;55.76;101475.75;5018563;28;20033;-87
2023/07/24 04:56:54;;;;;;;5.03;4.47;;;;;;;27.88;55.47;101441.88;5034030;28;20119;-88
2023/07/24 04:59:19;;;;;;;5.40;4.90;;;;;;;28.11;55.61;101492.72;5034802;28;20111;-88
2023/07/24 05:01:45;;;;;;;4.53;4.05;;;;;;;28.15;55.65;101492.72;5032897;28;20035;-87
2023/07/24 05:04:11;;;;;;;4.68;4.22;;;;;;;27.99;55.51;101472.22;5018364;28;20033;-88
2023/07/24 05:06:38;;;;;;;5.43;4.63;;;;;;;28.10;55.51;101496.31;5003106;28;20131;-91
2023/07/24 05:09:05;;;;;;;5.38;4.60;;;;;;;28.27;55.72;101525.75;5013980;28;20120;-88
2023/07/24 05:11:30;;;;;;;6.18;4.90;;;;;;;28.29;55.67;101527.50;5011829;28;20042;-88
2023/07/24 05:13:56;;;;;;;4.90;4.47;;;;;;;28.19;55.63;101515.03;5015335;28;20100;-89
2023/07/24 05:16:23;;;;;;;5.13;4.63;;;;;;;28.22;55.72;101523.09;5035218;28;20032;-88
2023/07/24 05:18:49;;;;;;;4.53;4.13;;;;;;;28.31;55.64;101536.44;5020552;28;20033;-89
2023/07/24 05:22:10;;;;;;;4.88;4.47;;;;;;;28.28;55.78;101538.25;5017596;28;20025;-87
2023/07/24 05:24:36;;;;;;;5.18;4.75;;;;;;;28.19;55.60;101529.38;5051556;28;20037;-88
2023/07/24 05:27:06;;;;;;;5.32;4.82;;;;;;;28.29;55.70;101538.25;5012568;28;20029;-88
2023/07/24 05:29:32;;;;;;;5.35;4.50;;;;;;;28.21;55.84;101527.59;5031528;28;20028;-87
2023/07/24 05:31:58;;;;;;;5.50;4.75;;;;;;;27.80;55.89;101455.31;5035563;28;20029;-88
2023/07/24 05:34:25;;;;;;;5.75;4.65;;;;;;;28.10;55.87;101501.69;5019037;28;20085;-88
2023/07/24 05:36:52;;;;;;;6.03;4.65;;;;;;;27.94;55.71;101480.31;5034780;28;20057;-88
2023/07/24 05:39:30;;;;;;;4.28;3.88;;;;;;;28.02;55.58;101482.94;5016637;28;20175;-90
2023/07/24 05:41:57;;;;;;;4.82;4.40;;;;;;;28.17;55.41;101506.09;5030758;28;20482;-89
2023/07/24 05:45:07;;;;;;;4.65;4.28;;;;;;;28.26;55.81;101522.16;5053729;28;20036;-87
2023/07/24 05:47:36;;;;;;;4.82;4.32;;;;;;;27.74;55.67;101434.75;5047692;28;20029;-89
2023/07/24 05:50:14;;;;;;;4.80;4.40;;;;;;;27.94;55.64;101485.69;5032319;28;20476;-90
2023/07/24 05:52:52;;;;;;;4.95;4.53;;;;;;;28.08;56.11;101517.81;5026979;28;20043;-92
2023/07/24 05:55:34;;;;;;;9.68;6.70;;;;;;;27.88;57.65;101514.38;5017258;28;20017;-89
2023/07/24 05:58:29;;;;;;;7.28;6.28;;;;;;;27.75;57.42;101500.06;5036346;28;20140;-91
2023/07/24 06:01:01;;;;;;;8.23;5.88;;;;;;;27.56;57.36;101484.06;5029644;28;20045;-91
2023/07/24 06:04:31;;;;;;;5.75;5.22;;;;;;;27.91;56.75;101504.47;5014429;28;20061;-90
2023/07/24 06:07:29;;;;;;;9.18;5.60;;;;;;;28.07;56.06;101534.81;5030102;28;20112;-90
2023/07/24 06:09:55;;;;;;;7.45;5.55;;;;;;;28.02;55.57;101537.56;5034613;28;20052;-90
2023/07/24 06:12:51;;;;;;;5.97;4.78;;;;;;;28.07;54.39;101523.16;5011779;28;20072;-91
2023/07/24 06:15:18;;;;;;;5.18;4.65;;;;;;;27.88;53.60;101477.66;5005981;28;20033;-91
2023/07/24 06:18:16;;;;;;;5.82;4.85;;;;;;;28.27;53.00;101537.38;5031378;28;20487;-89
2023/07/24 06:20:42;;;;;;;5.00;4.50;;;;;;;28.28;52.74;101549.00;5028858;28;20070;-89
2023/07/24 06:23:07;;;;;;;6.03;4.50;;;;;;;28.31;52.40;101535.56;5032251;28;20483;-88
2023/07/24 06:25:56;;;;;;;5.28;4.78;;;;;;;28.36;51.96;101534.63;5032127;28;20026;-90
2023/07/24 06:28:24;;;;;;;5.40;4.43;;;;;;;28.20;51.66;101504.28;5049137;28;20123;-89
2023/07/24 06:30:57;;;;;;;4.90;4.40;;;;;;;28.46;51.51;101530.06;5016422;28;20417;-87
2023/07/24 06:33:23;;;;;;;4.93;4.05;;;;;;;28.35;51.06;101503.28;5010954;28;20121;-88
2023/07/24 06:35:50;;;;;;;5.35;4.70;;;;;;;28.52;51.10;101519.31;5026364;28;20084;-87
2023/07/24 06:38:15;;;;;;;4.13;3.72;;;;;;;28.23;50.88;101463.09;5027879;28;20632;-87
2023/07/24 06:40:44;;;;;;;4.43;3.97;;;;;;;28.54;50.50;101516.63;5024076;28;20029;-87
2023/07/24 06:43:10;;;;;;;4.22;3.83;;;;;;;28.18;50.36;101441.63;5027786;28;20115;-86
2023/07/24 06:45:35;;;;;;;4.22;3.78;;;;;;;28.69;50.24;101529.03;5038117;28;20483;-86
2023/07/24 06:48:01;;;;;;;4.20;3.80;;;;;;;28.46;50.33;101494.25;5027734;28;20502;-86
2023/07/24 06:50:26;;;;;;;4.30;3.90;;;;;;;28.48;50.17;101501.38;5029799;28;20047;-85
2023/07/24 06:52:53;;;;;;;3.88;3.58;;;;;;;28.38;49.73;101462.06;5015402;28;20418;-85
2023/07/24 06:55:22;;;;;;;3.90;3.60;;;;;;;28.38;49.87;101470.13;5029852;28;20029;-86
2023/07/24 06:57:47;;;;;;;4.00;3.70;;;;;;;28.49;49.64;101480.81;5019055;28;20057;-85
2023/07/24 07:00:14;;;;;;;4.65;3.75;;;;;;;28.38;50.01;101472.81;5023636;28;20055;-86
2023/07/24 07:02:39;;;;;;;3.75;3.45;;;;;;;28.50;49.53;101485.28;5026148;28;20052;-85
2023/07/24 07:05:05;;;;;;;4.57;4.03;;;;;;;28.65;49.38;101497.69;5025000;28;20498;-85
2023/07/24 07:07:31;;;;;;;4.18;3.80;;;;;;;28.76;49.36;101514.59;5027081;28;20033;-86
2023/07/24 07:09:57;;;;;;;3.65;3.35;;;;;;;28.69;49.35;101502.16;4999448;28;20033;-86
2023/07/24 07:12:23;;;;;;;4.05;3.65;;;;;;;28.43;49.40;101469.19;5023432;28;20095;-87
2023/07/24 07:14:48;;;;;;;3.58;3.28;;;;;;;28.72;49.09;101494.03;5018426;28;20060;-86
2023/07/24 07:17:15;;;;;;;4.15;3.40;;;;;;;28.73;49.42;101512.84;5019440;28;20534;-85
2023/07/24 07:19:40;;;;;;;3.95;3.20;;;;;;;28.66;49.15;101495.00;5009506;28;20097;-85
2023/07/24 07:22:06;;;;;;;3.38;3.08;;;;;;;28.86;48.74;101494.78;5012517;28;20144;-85
2023/07/24 07:24:32;;;;;;;3.83;3.45;;;;;;;28.82;48.88;101510.06;5028186;28;20495;-86
2023/07/24 07:26:58;;;;;;;3.88;3.47;;;;;;;28.92;48.40;101505.50;5027766;28;20037;-85
2023/07/24 07:29:24;;;;;;;4.25;3.35;;;;;;;28.66;48.49;101452.00;5027789;28;20037;-85
2023/07/24 07:31:50;;;;;;;3.40;3.10;;;;;;;28.37;48.61;101410.13;5025558;28;20099;-85
2023/07/24 07:34:16;;;;;;;3.92;3.38;;;;;;;28.54;48.70;101458.38;5021660;28;20022;-85
2023/07/24 07:36:41;;;;;;;3.53;3.22;;;;;;;28.75;48.71;101481.47;5021989;28;20064;-85
2023/07/24 07:39:07;;;;;;;4.25;3.13;;;;;;;28.44;48.34;101424.41;5024304;28;20056;-84
2023/07/24 07:41:33;;;;;;;3.15;2.85;;;;;;;28.67;48.43;101455.56;5027496;28;20030;-86
2023/07/24 07:43:58;;;;;;;3.17;2.90;;;;;;;28.60;47.90;101444.00;5019702;28;20038;-85
2023/07/24 07:46:24;;;;;;;3.40;3.03;;;;;;;28.96;47.96;101509.94;5024902;28;20132;-85
2023/07/24 07:48:50;;;;;;;3.80;2.97;;;;;;;28.70;48.24;101468.97;5026141;28;20041;-86
2023/07/24 07:51:15;;;;;;;3.28;2.97;;;;;;;28.76;48.08;101476.97;5008703;28;20410;-86
2023/07/24 07:53:41;;;;;;;3.38;3.08;;;;;;;28.59;47.94;101439.50;5005782;28;20021;-86
2023/07/24 07:56:07;;;;;;;3.55;2.80;;;;;;;28.87;47.91;101472.41;5023876;28;20037;-87
2023/07/24 07:58:33;;;;;;;3.33;3.03;;;;;;;28.78;47.74;101470.66;5028830;28;20033;-88
2023/07/24 08:01:05;;;;;;;3.08;2.85;;;;;;;28.88;47.71;101473.28;5020677;28;20114;-87
2023/07/24 08:03:31;;;;;;;3.42;3.13;;;;;;;28.89;47.57;101458.91;5014834;28;20044;-88
2023/07/24 08:05:58;;;;;;;3.30;3.00;;;;;;;28.87;47.65;101460.72;5014839;28;20108;-86
2023/07/24 08:08:24;;;;;;;3.63;2.88;;;;;;;28.76;47.59;101450.97;5032674;28;20107;-89
2023/07/24 08:10:49;;;;;;;3.10;2.90;;;;;;;28.92;47.59;101469.66;5012035;28;20513;-87
2023/07/24 08:13:15;;;;;;;3.45;3.15;;;;;;;28.82;47.31;101456.28;5028440;28;20499;-86
2023/07/24 08:15:44;;;;;;;3.38;3.08;;;;;;;28.70;47.28;101417.91;5023368;28;20025;-88
2023/07/24 08:18:10;;;;;;;2.80;2.50;;;;;;;28.93;47.24;101471.41;5031798;28;20184;-88
2023/07/24 08:20:36;;;;;;;4.90;2.95;;;;;;;29.00;47.28;101451.63;5031039;28;20546;-87
2023/07/24 08:23:03;;;;;;;2.97;2.67;;;;;;;29.07;47.05;101477.53;5027291;28;20039;-88
2023/07/24 08:25:28;;;;;;;3.80;3.15;;;;;;;29.19;47.13;101496.25;5031590;28;20391;-87
2023/07/24 08:27:54;;;;;;;3.78;3.20;;;;;;;29.10;47.19;101485.59;5029352;28;20533;-88
2023/07/24 08:30:19;;;;;;;2.80;2.60;;;;;;;28.87;47.19;101445.50;5029591;28;20131;-87
2023/07/24 08:32:45;;;;;;;3.00;2.72;;;;;;;29.17;47.14;101487.31;5029601;28;20113;-88
2023/07/24 08:35:11;;;;;;;2.90;2.60;;;;;;;29.21;46.91;101490.84;5023457;28;20023;-87
2023/07/24 08:37:36;;;;;;;5.13;3.15;;;;;;;29.27;46.79;101495.28;5029041;28;20034;-88
2023/07/24 08:40:02;;;;;;;3.25;2.90;;;;;;;29.15;46.59;101467.63;5019804;28;20090;-89
2023/07/24 08:42:28;;;;;;;3.38;3.08;;;;;;;28.95;46.64;101427.47;5033228;28;20047;-87
2023/07/24 08:44:54;;;;;;;3.30;2.97;;;;;;;29.12;47.07;101490.97;5048470;28;20033;-87
2023/07/24 08:47:20;;;;;;;3.97;2.80;;;;;;;29.18;46.79;101490.88;5033735;28;20500;-87
2023/07/24 08:49:46;;;;;;;3.35;3.05;;;;;;;29.18;46.97;101496.28;5034586;28;20116;-88
2023/07/24 08:52:12;;;;;;;3.10;2.90;;;;;;;29.26;46.65;101497.06;5050289;28;20021;-88
2023/07/24 08:54:38;;;;;;;3.17;2.88;;;;;;;28.88;46.75;101424.88;5032171;28;20031;-88
2023/07/24 08:57:06;;;;;;;2.72;2.53;;;;;;;29.13;46.80;101488.25;5052381;28;20035;-86
2023/07/24 08:59:32;;;;;;;2.92;2.72;;;;;;;29.00;46.80;101455.22;5035021;28;20032;-88
2023/07/24 09:01:57;;;;;;;3.15;2.85;;;;;;;29.23;46.54;101468.41;5031831;28;20030;-89
2023/07/24 09:04:24;;;;;;;2.88;2.67;;;;;;;29.09;46.45;101445.25;5032154;28;20060;-88
2023/07/24 09:06:50;;;;;;;3.25;2.80;;;;;;;29.20;46.34;101454.09;5034968;28;20033;-88
2023/07/24 09:09:16;;;;;;;3.00;2.80;;;;;;;29.19;46.38;101453.22;5052625;28;20033;-89
2023/07/24 09:11:52;;;;;;;3.00;2.70;;;;;;;29.28;46.61;101476.44;5035157;28;20083;-89
2023/07/24 09:14:26;;;;;;;2.90;2.70;;;;;;;29.27;46.30;101471.06;5032230;28;20454;-88
2023/07/24 09:17:06;;;;;;;2.70;2.50;;;;;;;29.14;46.32;101430.84;5037024;28;20033;-89
2023/07/24 09:19:32;;;;;;;3.05;2.85;;;;;;;28.96;46.34;101420.31;5029368;28;20106;-89
2023/07/24 09:22:27;;;;;;;3.00;2.75;;;;;;;29.11;46.62;101438.09;5034333;28;20060;-89
2023/07/24 09:24:57;;;;;;;2.83;2.63;;;;;;;29.31;46.13;101464.72;5018136;28;20041;-88
2023/07/24 09:27:28;;;;;;;3.05;2.78;;;;;;;29.31;46.39;101453.97;5011798;28;20112;-88
2023/07/24 09:29:55;;;;;;;3.17;2.95;;;;;;;28.96;46.13;101382.66;5041875;28;20029;-87
2023/07/24 09:32:22;;;;;;;3.03;2.83;;;;;;;29.38;46.13;101467.34;5034026;28;20111;-88
2023/07/24 09:34:50;;;;;;;3.10;2.80;;;;;;;29.30;46.07;101442.31;5035099;28;20032;-88
2023/07/24 09:37:33;;;;;;;2.97;2.70;;;;;;;29.19;46.04;101433.50;5033597;28;20797;-88
2023/07/24 09:39:59;;;;;;;2.80;2.60;;;;;;;29.28;46.22;101440.56;4997167;28;20068;-87
2023/07/24 09:42:35;;;;;;;2.78;2.58;;;;;;;29.26;45.98;101432.50;5009640;28;20544;-89
2023/07/24 09:45:02;;;;;;;3.60;3.17;;;;;;;29.15;45.77;101415.63;4996728;28;20029;-88
2023/07/24 09:47:28;;;;;;;2.78;2.55;;;;;;;29.38;45.86;101451.19;5031073;28;20637;-88
2023/07/24 09:49:53;;;;;;;2.80;2.60;;;;;;;29.29;45.78;101418.13;5014525;28;20041;-88
2023/07/24 09:52:20;;;;;;;3.53;2.58;;;;;;;29.24;45.85;101404.72;5026911;28;20036;-88
2023/07/24 09:55:01;;;;;;;2.67;2.47;;;;;;;29.18;45.86;101399.44;4997898;28;20032;-87
2023/07/24 09:57:28;;;;;;;3.38;2.70;;;;;;;29.11;45.67;101373.53;5013754;28;20048;-89
2023/07/24 09:59:56;;;;;;;2.80;2.60;;;;;;;29.39;45.76;101411.72;5012214;28;20091;-87
2023/07/24 10:02:23;;;;;;;2.60;2.40;;;;;;;29.53;45.89;101442.03;4997267;28;20411;-87
2023/07/24 10:04:49;;;;;;;2.85;2.63;;;;;;;29.27;45.83;101404.69;5012876;28;20517;-86
2023/07/24 10:07:21;;;;;;;2.70;2.50;;;;;;;29.58;45.73;101444.63;4990773;28;20052;-86
2023/07/24 10:09:47;;;;;;;2.67;2.47;;;;;;;29.18;45.86;101372.53;5013836;28;20032;-87
2023/07/24 10:12:13;;;;;;;2.78;2.58;;;;;;;29.53;45.69;101439.31;5010129;28;20619;-85
2023/07/24 10:14:39;;;;;;;2.90;2.70;;;;;;;29.49;45.64;101416.06;4993971;28;20052;-87
2023/07/24 10:17:05;;;;;;;2.78;2.58;;;;;;;29.57;45.71;101426.69;4994238;28;20859;-89
2023/07/24 10:19:45;;;;;;;2.60;2.40;;;;;;;29.39;45.54;101399.13;5026679;28;20040;-86
2023/07/24 10:22:20;;;;;;;2.85;2.65;;;;;;;29.42;45.56;101399.13;4990536;28;20481;-86
2023/07/24 10:24:52;;;;;;;2.88;2.65;;;;;;;29.11;45.42;101343.97;5023213;28;20029;-89
2023/07/24 10:27:29;;;;;;;2.60;2.40;;;;;;;29.36;45.39;101382.16;5010004;28;20532;-90
2023/07/24 10:30:13;;;;;;;2.55;2.35;;;;;;;29.26;45.39;101357.19;5126322;27;20419;-87
2023/07/24 10:32:49;;;;;;;2.50;2.30;;;;;;;29.68;45.85;101429.25;5106287;28;20023;-88
2023/07/24 10:35:20;;;;;;;2.90;2.60;;;;;;;29.50;45.17;101372.06;5111871;28;20377;-87
2023/07/24 10:37:46;;;;;;;2.75;2.55;;;;;;;29.30;45.51;101348.16;5110233;28;20043;-84
2023/07/24 10:40:21;;;;;;;3.05;2.60;;;;;;;29.74;45.00;101416.63;5116541;28;20031;-86
2023/07/24 10:42:46;;;;;;;3.70;2.90;;;;;;;29.68;46.57;101419.38;5119451;28;20023;-87
2023/07/24 10:45:15;;;;;;;3.38;2.95;;;;;;;29.30;46.24;101340.09;5132848;27;20083;-85
2023/07/24 10:47:41;;;;;;;4.80;3.05;;;;;;;29.63;46.10;101388.91;5109689;28;20031;-86
2023/07/24 10:50:07;;;;;;;2.95;2.75;;;;;;;29.57;45.81;101381.84;5116522;27;20409;-86
2023/07/24 10:52:33;;;;;;;3.00;2.80;;;;;;;29.25;45.45;101311.47;5103178;28;20104;-86
2023/07/24 10:55:02;;;;;;;3.30;3.00;;;;;;;29.81;45.41;101403.94;5119852;27;20059;-84
2023/07/24 10:57:29;;;;;;;3.10;2.67;;;;;;;29.73;45.37;101385.22;5120260;27;20065;-85
2023/07/24 10:59:55;;;;;;;3.05;2.75;;;;;;;29.53;45.22;101336.19;5117774;27;20077;-84
2023/07/24 11:02:21;;;;;;;3.75;3.20;;;;;;;29.69;45.26;101369.97;5126281;27;20031;-85
2023/07/24 11:04:47;;;;;;;2.80;2.60;;;;;;;29.89;45.13;101393.94;5108159;28;20099;-85
2023/07/24 11:07:13;;;;;;;2.72;2.50;;;;;;;29.53;44.98;101336.19;5106750;28;20107;-85
2023/07/24 11:09:43;;;;;;;3.10;2.85;;;;;;;29.61;45.08;101345.91;5107509;28;20051;-86
2023/07/24 11:12:16;;;;;;;3.88;2.83;;;;;;;29.61;45.07;101329.75;5119801;27;20035;-84
2023/07/24 11:14:54;;;;;;;2.95;2.65;;;;;;;29.92;44.87;101384.94;5118780;27;20028;-85
2023/07/24 11:17:19;;;;;;;2.70;2.50;;;;;;;29.57;44.61;101319.94;5103881;27;20046;-84
2023/07/24 11:19:45;;;;;;;3.00;2.80;;;;;;;29.83;44.84;101357.22;5131180;27;20548;-86
2023/07/24 11:22:11;;;;;;;3.20;2.90;;;;;;;29.96;44.81;101365.09;5117589;27;20039;-87
2023/07/24 11:24:45;;;;;;;3.33;3.03;;;;;;;29.92;44.94;101366.06;5124788;28;20465;-83
2023/07/24 11:27:17;;;;;;;3.15;2.88;;;;;;;29.99;44.89;101363.25;5114405;28;20026;-85
2023/07/24 11:29:51;;;;;;;3.08;2.78;;;;;;;29.93;44.79;101341.81;5117750;27;20081;-86
2023/07/24 11:32:19;;;;;;;3.22;2.92;;;;;;;29.99;44.77;101349.78;5120171;27;20032;-85
2023/07/24 11:34:47;;;;;;;3.03;2.80;;;;;;;29.76;44.87;101311.56;5125301;27;20011;-84
2023/07/24 11:37:13;;;;;;;3.33;3.03;;;;;;;29.87;44.71;101320.38;5132621;27;20051;-84
2023/07/24 11:39:43;;;;;;;3.03;2.72;;;;;;;29.91;44.54;101313.13;5118219;28;20027;-86
2023/07/24 11:42:21;;;;;;;3.05;2.83;;;;;;;29.87;44.63;101306.00;5098404;28;20024;-85
2023/07/24 11:45:26;;;;;;;2.90;2.60;;;;;;;29.92;44.87;101326.56;5122626;28;20023;-83